Time;durP1;ratioP1;P1;durP2;ratioP2;P2;SDS_P1;SDS_P2;PMS_P1;PMS_P2;Temp;Humidity;BMP_temperature;BMP_pressure;BME280_temperature;BME280_humidity;BME280_pressure;Samples;Min_cycle;Max_cycle;Signal;HPM_P1;HPM_P2
2023/12/10 00:01:14;;;;;;;12.60;3.13;;;;;;;13.37;58.93;97648.13;8364936;23;20206;-80
2023/12/10 00:04:38;;;;;;;11.50;3.50;;;;;;;13.69;58.18;97650.97;8364758;23;20170;-80
2023/12/10 00:08:00;;;;;;;16.50;3.70;;;;;;;13.72;57.70;97645.03;8363567;23;20209;-79
2023/12/10 00:11:22;;;;;;;7.47;3.10;;;;;;;13.73;57.16;97674.56;8361253;23;20224;-80
2023/12/10 00:14:45;;;;;;;13.13;3.93;;;;;;;13.71;57.08;97679.44;8361431;23;20237;-79
2023/12/10 00:18:09;;;;;;;13.50;4.17;;;;;;;14.07;56.67;97686.06;8362602;23;20201;-80
2023/12/10 00:21:30;;;;;;;15.73;4.43;;;;;;;13.83;56.27;97687.41;8360992;23;20213;-79
2023/12/10 00:24:52;;;;;;;13.87;3.60;;;;;;;13.78;56.50;97679.22;8361462;23;20192;-79
2023/12/10 00:28:14;;;;;;;15.00;3.10;;;;;;;13.62;56.79;97699.88;8362309;23;20236;-80
2023/12/10 00:31:35;;;;;;;12.43;3.50;;;;;;;14.03;55.61;97704.75;8359855;23;20233;-79
2023/12/10 00:34:58;;;;;;;14.10;3.50;;;;;;;14.04;55.17;97713.69;8363711;23;20521;-80
2023/12/10 00:38:20;;;;;;;12.53;3.57;;;;;;;13.78;56.02;97719.84;8364330;23;20777;-78
2023/12/10 00:41:41;;;;;;;8.80;3.90;;;;;;;13.65;55.80;97720.22;8364439;23;20214;-78
2023/12/10 00:45:03;;;;;;;12.43;3.83;;;;;;;14.16;54.50;97727.94;8362131;23;20185;-79
2023/12/10 00:48:24;;;;;;;18.03;3.87;;;;;;;13.76;54.96;97724.72;8360284;23;20206;-80
2023/12/10 00:51:47;;;;;;;12.63;3.57;;;;;;;13.87;54.24;97723.78;8362754;23;20216;-76
2023/12/10 00:55:10;;;;;;;8.17;3.37;;;;;;;13.81;54.75;97727.50;8362379;23;20186;-77
2023/12/10 00:58:31;;;;;;;13.93;4.00;;;;;;;14.05;54.61;97740.53;8361510;23;20264;-79
2023/12/10 01:01:53;;;;;;;16.40;3.77;;;;;;;14.51;53.09;97769.03;8363530;23;20206;-80
2023/12/10 01:05:15;;;;;;;18.40;4.20;;;;;;;13.96;54.55;97771.03;8363359;23;20188;-78
2023/12/10 01:08:38;;;;;;;11.97;3.53;;;;;;;14.13;53.65;97785.34;8362687;23;20322;-79
2023/12/10 01:11:59;;;;;;;13.73;4.67;;;;;;;13.51;54.47;97792.88;8364105;23;20284;-79
2023/12/10 01:15:29;;;;;;;14.53;4.23;;;;;;;13.59;54.56;97803.31;8364947;23;20661;-79
2023/12/10 01:18:51;;;;;;;14.57;4.67;;;;;;;14.09;53.51;97830.31;8364478;23;20166;-79
2023/12/10 01:22:12;;;;;;;14.47;4.23;;;;;;;13.91;53.84;97838.69;8364971;23;20666;-79
2023/12/10 01:25:35;;;;;;;17.17;5.93;;;;;;;13.99;53.29;97830.16;8365056;23;20185;-80
2023/12/10 01:28:57;;;;;;;15.63;4.80;;;;;;;13.75;53.37;97843.09;8363960;23;20336;-79
2023/12/10 01:32:19;;;;;;;15.53;4.83;;;;;;;13.79;53.10;97821.72;8364897;23;20206;-79
2023/12/10 01:35:40;;;;;;;21.20;4.73;;;;;;;13.98;53.48;97861.06;8365048;23;20268;-79
2023/12/10 01:39:03;;;;;;;18.33;5.10;;;;;;;13.85;52.92;97854.06;8364019;23;20186;-79
2023/12/10 01:42:26;;;;;;;21.00;6.20;;;;;;;14.23;52.18;97869.56;8364086;23;20210;-79
2023/12/10 01:45:50;;;;;;;21.53;4.83;;;;;;;13.55;53.04;97877.16;8364770;23;20607;-79
2023/12/10 01:49:12;;;;;;;18.73;5.20;;;;;;;13.63;53.50;97880.28;8364043;23;20212;-78
2023/12/10 01:52:34;;;;;;;19.37;6.20;;;;;;;13.80;52.89;97881.09;8363046;23;20931;-78
2023/12/10 01:55:56;;;;;;;19.33;5.20;;;;;;;13.94;52.45;97881.56;8364736;23;20709;-79
2023/12/10 01:59:20;;;;;;;19.13;4.73;;;;;;;13.80;52.64;97902.75;8363275;23;20186;-80
2023/12/10 02:02:44;;;;;;;15.80;4.83;;;;;;;13.84;52.52;97895.78;8365118;23;20186;-80
2023/12/10 02:06:06;;;;;;;20.13;4.37;;;;;;;13.96;51.93;97907.34;8364537;23;20264;-79
2023/12/10 02:09:28;;;;;;;26.40;5.53;;;;;;;14.00;51.34;97897.69;8364265;23;20240;-79
2023/12/10 02:12:52;;;;;;;17.47;4.77;;;;;;;14.03;51.65;97905.28;8364746;23;20186;-79
2023/12/10 02:16:14;;;;;;;15.97;4.47;;;;;;;14.16;51.05;97906.84;8364787;23;20189;-78
2023/12/10 02:19:36;;;;;;;22.80;5.73;;;;;;;13.87;51.06;97911.53;8364285;23;20515;-79
2023/12/10 02:23:03;;;;;;;21.33;4.60;;;;;;;14.23;50.98;97908.31;8364799;23;20658;-79
2023/12/10 02:26:26;;;;;;;18.07;5.30;;;;;;;14.17;50.71;97900.34;8365353;23;20170;-79
2023/12/10 02:29:49;;;;;;;20.93;6.03;;;;;;;14.06;50.93;97896.69;8366336;23;20206;-79
2023/12/10 02:33:10;;;;;;;19.57;6.03;;;;;;;13.68;51.40;97896.63;8368830;23;20630;-78
2023/12/10 02:36:32;;;;;;;18.20;4.87;;;;;;;13.74;51.89;97914.59;8368019;23;20218;-79
2023/12/10 02:39:54;;;;;;;22.30;4.30;;;;;;;14.08;51.10;97918.91;8365662;23;20216;-79
2023/12/10 02:43:17;;;;;;;17.60;4.10;;;;;;;13.59;51.43;97889.97;8365004;23;20186;-79
2023/12/10 02:46:44;;;;;;;13.90;3.87;;;;;;;13.78;51.58;97939.28;8365396;23;20275;-78
2023/12/10 02:50:06;;;;;;;23.87;5.50;;;;;;;13.38;53.43;97942.13;8364082;23;20674;-78
2023/12/10 02:53:28;;;;;;;15.80;4.30;;;;;;;13.56;53.22;97957.34;8363774;23;20201;-79
2023/12/10 02:56:49;;;;;;;18.07;4.90;;;;;;;13.49;53.78;97983.75;8363334;23;20480;-79
2023/12/10 03:00:15;;;;;;;16.57;4.33;;;;;;;12.83;56.56;97999.75;8362107;23;20202;-76
2023/12/10 03:03:37;;;;;;;10.53;3.67;;;;;;;12.66;56.40;97999.66;8363292;23;20480;-76
2023/12/10 03:06:58;;;;;;;10.97;3.60;;;;;;;12.86;55.73;98020.91;8361268;23;20630;-76
2023/12/10 03:10:20;;;;;;;9.07;3.13;;;;;;;12.70;55.49;98024.34;8361255;23;20212;-78
2023/12/10 03:13:43;;;;;;;12.37;3.53;;;;;;;12.49;55.98;98030.34;8362831;23;20240;-76
2023/12/10 03:17:06;;;;;;;8.30;3.00;;;;;;;12.77;55.89;98025.03;8362736;23;20178;-78
2023/12/10 03:20:27;;;;;;;12.93;3.13;;;;;;;13.30;54.52;98020.22;8360914;23;20201;-76
2023/12/10 03:23:49;;;;;;;10.43;3.33;;;;;;;12.89;54.97;98012.31;8361711;23;20668;-76
2023/12/10 03:27:10;;;;;;;8.20;2.57;;;;;;;12.93;55.20;98013.47;8361415;23;20206;-79
2023/12/10 03:30:32;;;;;;;10.17;3.60;;;;;;;12.84;55.13;98021.16;8362359;23;20213;-76
2023/12/10 03:33:55;;;;;;;8.37;3.40;;;;;;;12.81;54.94;98023.50;8362951;23;20510;-75
2023/12/10 03:37:16;;;;;;;9.07;2.97;;;;;;;12.52;56.22;98052.31;8361399;23;20181;-81
2023/12/10 03:40:39;;;;;;;8.93;3.27;;;;;;;12.63;55.79;98045.28;8360276;23;20564;-76
2023/12/10 03:44:00;;;;;;;7.67;2.97;;;;;;;12.79;54.46;98039.97;8361538;23;20182;-76
2023/12/10 03:47:22;;;;;;;10.50;3.33;;;;;;;12.80;54.61;98052.44;8362633;23;20209;-76
2023/12/10 03:50:45;;;;;;;7.77;2.67;;;;;;;12.69;54.53;98055.16;8361629;23;20213;-78
2023/12/10 03:54:07;;;;;;;7.00;2.80;;;;;;;12.35;54.48;98061.38;8361801;23;20186;-76
2023/12/10 03:57:28;;;;;;;9.10;2.90;;;;;;;12.61;54.25;98063.59;8360940;23;20181;-76
2023/12/10 04:00:50;;;;;;;9.13;3.50;;;;;;;12.49;54.48;98069.03;8359484;23;20212;-76
2023/12/10 04:04:12;;;;;;;16.13;3.77;;;;;;;12.51;53.67;98090.44;8362778;23;20186;-79
2023/12/10 04:07:35;;;;;;;14.23;4.23;;;;;;;12.65;53.10;98092.66;8361635;23;20681;-78
2023/12/10 04:10:56;;;;;;;16.73;4.20;;;;;;;12.64;52.52;98103.72;8360307;23;20213;-76
2023/12/10 04:14:18;;;;;;;11.57;3.43;;;;;;;12.23;53.32;98103.78;8362700;23;20190;-77
2023/12/10 04:17:39;;;;;;;12.47;3.27;;;;;;;12.38;53.11;98107.69;8362938;23;20178;-79
2023/12/10 04:21:01;;;;;;;12.70;4.23;;;;;;;12.56;52.65;98112.19;8360727;23;20206;-77
2023/12/10 04:24:24;;;;;;;12.47;3.47;;;;;;;12.51;52.77;98102.06;8362190;23;20189;-77
2023/12/10 04:27:45;;;;;;;10.60;3.60;;;;;;;12.38;53.67;98113.09;8361358;23;20202;-77
2023/12/10 04:31:07;;;;;;;15.10;4.40;;;;;;;12.87;52.32;98112.63;8360420;23;20565;-77
2023/12/10 04:34:29;;;;;;;18.13;3.40;;;;;;;12.78;52.24;98115.94;8360052;23;20190;-77
2023/12/10 04:37:50;;;;;;;14.00;4.47;;;;;;;12.96;51.43;98124.78;8361145;23;20181;-78
2023/12/10 04:41:13;;;;;;;12.17;3.63;;;;;;;13.00;51.23;98123.28;8361080;23;20210;-78
2023/12/10 04:44:35;;;;;;;15.30;3.73;;;;;;;12.85;51.68;98131.00;8360686;23;20186;-77
2023/12/10 04:47:56;;;;;;;15.37;3.50;;;;;;;12.96;51.03;98122.09;8362811;23;20202;-79
2023/12/10 04:51:18;;;;;;;16.80;3.77;;;;;;;13.08;50.57;98138.28;8363545;23;20724;-76
2023/12/10 04:54:39;;;;;;;12.00;3.63;;;;;;;12.87;50.57;98145.09;8364205;23;20646;-76
2023/12/10 04:58:02;;;;;;;11.13;3.23;;;;;;;12.42;51.19;98091.81;8363068;23;20494;-76
2023/12/10 05:01:24;;;;;;;11.63;3.13;;;;;;;13.02;50.44;98153.59;8362916;23;20206;-76
2023/12/10 05:04:46;;;;;;;11.17;3.60;;;;;;;13.20;50.40;98161.59;8362648;23;20182;-77
2023/12/10 05:08:07;;;;;;;12.90;4.00;;;;;;;13.31;49.61;98179.72;8362252;23;20209;-77
2023/12/10 05:11:29;;;;;;;10.93;3.43;;;;;;;13.03;49.68;98176.91;8362903;23;20213;-76
2023/12/10 05:14:52;;;;;;;9.87;3.10;;;;;;;12.58;50.42;98189.28;8363613;23;20186;-76
2023/12/10 05:18:13;;;;;;;15.63;4.13;;;;;;;12.58;50.54;98197.41;8362897;23;20200;-79
2023/12/10 05:21:35;;;;;;;15.90;3.50;;;;;;;12.92;49.50;98198.53;8361641;23;20210;-76
2023/12/10 05:24:56;;;;;;;9.70;3.47;;;;;;;12.92;49.17;98204.75;8362405;23;20193;-76
2023/12/10 05:28:18;;;;;;;11.80;3.70;;;;;;;13.20;48.82;98212.19;8362969;23;20205;-76
2023/12/10 05:31:41;;;;;;;11.43;4.17;;;;;;;13.39;48.15;98194.78;8363445;23;20216;-77
2023/12/10 05:35:03;;;;;;;11.70;3.30;;;;;;;13.05;48.68;98211.84;8364047;23;20657;-76
2023/12/10 05:38:24;;;;;;;15.50;4.17;;;;;;;13.21;48.42;98230.09;8361861;23;20186;-76
2023/12/10 05:41:46;;;;;;;12.00;3.80;;;;;;;13.26;48.37;98222.91;8362169;23;20295;-77
2023/12/10 05:45:08;;;;;;;9.43;3.70;;;;;;;13.21;47.98;98233.63;8362293;23;20189;-76
2023/12/10 05:48:31;;;;;;;14.70;3.50;;;;;;;13.01;48.72;98245.84;8362187;23;20553;-76
2023/12/10 05:51:52;;;;;;;13.50;3.70;;;;;;;13.02;48.59;98244.78;8363613;23;20538;-76
2023/12/10 05:55:14;;;;;;;12.10;3.87;;;;;;;13.03;48.59;98247.25;8363309;23;20192;-79
2023/12/10 05:58:36;;;;;;;15.13;3.87;;;;;;;13.03;48.17;98246.41;8361697;23;20189;-76
2023/12/10 06:01:57;;;;;;;9.17;3.40;;;;;;;13.32;47.69;98246.31;8362263;23;20202;-76
2023/12/10 06:05:21;;;;;;;11.47;3.83;;;;;;;13.20;47.66;98253.63;8362081;23;20635;-76
2023/12/10 06:08:42;;;;;;;7.70;3.37;;;;;;;13.33;46.69;98255.28;8361832;23;20213;-76
2023/12/10 06:12:04;;;;;;;10.17;3.60;;;;;;;13.57;47.04;98259.63;8362999;23;20206;-76
2023/12/10 06:15:26;;;;;;;12.87;4.07;;;;;;;13.29;47.04;98263.03;8362495;23;20185;-77
2023/12/10 06:18:47;;;;;;;9.47;3.23;;;;;;;12.61;48.54;98269.13;8361098;23;20182;-77
2023/12/10 06:22:11;;;;;;;12.20;4.43;;;;;;;12.96;47.56;98265.50;8361998;23;20206;-78
2023/12/10 06:25:32;;;;;;;9.27;2.97;;;;;;;12.66;48.00;98275.50;8363731;23;20208;-79
2023/12/10 06:28:54;;;;;;;12.97;3.60;;;;;;;13.07;48.08;98289.03;8364024;23;20205;-75
2023/12/10 06:32:16;;;;;;;9.97;3.30;;;;;;;12.98;47.11;98292.31;8358271;23;20209;-79
2023/12/10 06:35:38;;;;;;;9.80;3.50;;;;;;;13.02;46.91;98291.63;8362318;23;20615;-78
2023/12/10 06:39:01;;;;;;;12.23;3.67;;;;;;;12.76;47.10;98304.69;8360665;23;20236;-78
2023/12/10 06:42:22;;;;;;;9.13;3.37;;;;;;;12.86;47.11;98303.06;8374899;23;20712;-78
2023/12/10 06:45:44;;;;;;;9.43;3.63;;;;;;;13.10;46.82;98314.81;8363139;23;20185;-79
2023/12/10 06:49:05;;;;;;;15.17;3.73;;;;;;;12.72;47.41;98309.75;8362141;23;20213;-78
2023/12/10 06:52:27;;;;;;;14.03;3.20;;;;;;;13.23;46.50;98323.53;8360699;23;20209;-79
2023/12/10 06:55:50;;;;;;;13.33;3.70;;;;;;;13.01;47.07;98317.03;8360267;23;20182;-79
2023/12/10 06:59:11;;;;;;;12.97;3.37;;;;;;;13.15;46.55;98314.94;8359693;23;20677;-79
2023/12/10 07:02:33;;;;;;;13.97;3.77;;;;;;;12.97;46.64;98336.66;8366354;23;20206;-78
2023/12/10 07:05:55;;;;;;;10.57;3.30;;;;;;;13.36;45.97;98338.75;8364825;23;20331;-80
2023/12/10 07:09:16;;;;;;;11.73;3.50;;;;;;;12.95;46.57;98347.72;8363819;23;20208;-80
2023/12/10 07:12:39;;;;;;;11.00;3.93;;;;;;;13.43;45.97;98356.53;8363801;23;20206;-80
2023/12/10 07:16:01;;;;;;;8.63;3.20;;;;;;;12.71;47.50;98355.97;8364142;23;20190;-79
2023/12/10 07:19:22;;;;;;;12.23;3.47;;;;;;;12.76;48.35;98353.41;8363396;23;20182;-80
2023/12/10 07:22:44;;;;;;;11.47;3.17;;;;;;;13.24;47.23;98373.09;8366577;23;20193;-80
2023/12/10 07:26:06;;;;;;;9.00;3.23;;;;;;;12.83;48.16;98382.00;8366323;23;20186;-80
2023/12/10 07:29:29;;;;;;;12.87;3.67;;;;;;;12.60;48.47;98373.78;8364112;23;20202;-80
2023/12/10 07:32:50;;;;;;;9.90;2.83;;;;;;;13.11;46.51;98376.81;8364171;23;20995;-80
2023/12/10 07:36:12;;;;;;;12.70;3.13;;;;;;;12.89;46.70;98380.25;8364222;23;20186;-80
2023/12/10 07:39:34;;;;;;;12.20;3.47;;;;;;;12.95;47.15;98376.63;8362229;23;20190;-80
2023/12/10 07:42:55;;;;;;;13.13;3.47;;;;;;;12.08;49.19;98381.69;8365475;23;20170;-79
2023/12/10 07:46:18;;;;;;;9.00;3.03;;;;;;;12.43;49.36;98380.88;8365576;23;20181;-81
2023/12/10 07:49:40;;;;;;;8.80;2.83;;;;;;;11.56;50.27;98331.72;8364901;23;20205;-80
2023/12/10 07:53:02;;;;;;;12.23;3.90;;;;;;;12.29;50.31;98384.81;8364536;23;20491;-79
2023/12/10 07:56:24;;;;;;;15.23;3.53;;;;;;;12.38;50.13;98356.41;8364238;23;20495;-79
2023/12/10 07:59:45;;;;;;;8.97;2.70;;;;;;;12.68;49.31;98383.47;8362167;23;20205;-79
2023/12/10 08:03:08;;;;;;;9.37;3.70;;;;;;;12.70;49.14;98367.84;8365251;23;20182;-81
2023/12/10 08:06:31;;;;;;;12.57;3.47;;;;;;;12.85;48.93;98385.31;8364326;23;20192;-79
2023/12/10 08:09:52;;;;;;;9.87;3.17;;;;;;;12.92;49.20;98391.44;8361314;23;20259;-80
2023/12/10 08:13:14;;;;;;;11.57;3.77;;;;;;;12.51;49.63;98407.59;8361300;23;20190;-79
2023/12/10 08:16:36;;;;;;;9.67;3.20;;;;;;;12.51;49.46;98409.50;8361619;23;20598;-79
2023/12/10 08:19:58;;;;;;;12.20;3.30;;;;;;;12.94;48.78;98410.16;8362119;23;20754;-78
2023/12/10 08:23:20;;;;;;;12.50;3.50;;;;;;;12.88;49.25;98417.31;8362336;23;20189;-77
2023/12/10 08:26:42;;;;;;;12.63;3.50;;;;;;;12.59;49.91;98415.41;8367805;23;20190;-78
2023/12/10 08:30:04;;;;;;;10.07;3.67;;;;;;;12.66;49.09;98423.44;8362404;23;20535;-77
2023/12/10 08:33:26;;;;;;;9.93;2.97;;;;;;;13.46;48.32;98436.47;8358815;23;20261;-77
2023/12/10 08:36:49;;;;;;;10.60;3.37;;;;;;;13.53;47.87;98431.78;8361156;23;20651;-77
2023/12/10 08:40:10;;;;;;;8.80;3.33;;;;;;;12.66;49.89;98437.78;8361326;23;20217;-78
2023/12/10 08:43:32;;;;;;;15.30;3.33;;;;;;;12.84;49.28;98434.22;8361762;23;20190;-78
2023/12/10 08:46:54;;;;;;;10.27;3.30;;;;;;;13.18;48.77;98429.00;8360577;23;20186;-79
2023/12/10 08:50:16;;;;;;;13.20;4.07;;;;;;;13.24;48.32;98432.66;8360123;23;20210;-75
2023/12/10 08:53:39;;;;;;;10.50;3.30;;;;;;;13.00;48.96;98437.16;8360592;23;20218;-76
2023/12/10 08:57:00;;;;;;;15.33;3.60;;;;;;;13.18;49.77;98429.00;8356264;23;20182;-76
2023/12/10 09:00:22;;;;;;;9.83;3.33;;;;;;;13.48;48.64;98431.66;8359714;23;20213;-77
2023/12/10 09:03:45;;;;;;;12.10;3.57;;;;;;;13.30;48.99;98429.84;8359606;23;20185;-77
2023/12/10 09:07:06;;;;;;;9.83;3.20;;;;;;;13.52;48.93;98441.78;8361036;23;20186;-77
2023/12/10 09:10:29;;;;;;;11.90;3.97;;;;;;;14.36;47.22;98441.38;8360748;23;20220;-76
2023/12/10 09:13:51;;;;;;;11.33;3.40;;;;;;;14.45;46.66;98456.25;8362023;23;20569;-77
2023/12/10 09:17:12;;;;;;;9.73;3.30;;;;;;;14.86;45.38;98445.19;8361119;23;20191;-78
2023/12/10 09:20:34;;;;;;;13.70;3.77;;;;;;;14.66;45.16;98437.44;8360084;23;20202;-75
2023/12/10 09:23:55;;;;;;;11.33;2.83;;;;;;;14.82;44.67;98455.66;8360886;23;20189;-76
2023/12/10 09:27:18;;;;;;;6.73;3.37;;;;;;;14.54;45.21;98465.66;8361410;23;20186;-78
2023/12/10 09:30:40;;;;;;;9.77;3.50;;;;;;;14.49;45.68;98481.81;8356325;23;20283;-77
2023/12/10 09:34:02;;;;;;;15.30;3.70;;;;;;;13.22;48.11;98500.56;8363161;23;20185;-75
2023/12/10 09:37:23;;;;;;;9.40;2.67;;;;;;;13.37;48.48;98516.38;8363500;23;20190;-75
2023/12/10 09:40:45;;;;;;;9.50;3.10;;;;;;;14.10;47.22;98504.22;8361087;23;20213;-76
2023/12/10 09:44:09;;;;;;;10.87;3.17;;;;;;;13.68;48.56;98511.53;8361515;23;20188;-78
2023/12/10 09:47:32;;;;;;;10.20;3.53;;;;;;;14.15;48.05;98526.84;8361207;23;20264;-77
2023/12/10 09:50:54;;;;;;;12.57;3.63;;;;;;;14.55;46.87;98522.41;8362056;23;20264;-76
2023/12/10 09:54:20;;;;;;;11.77;4.13;;;;;;;14.16;48.17;98533.91;8363560;23;20182;-77
2023/12/10 09:57:42;;;;;;;8.50;3.70;;;;;;;14.53;46.49;98526.41;8363577;23;20177;-77
2023/12/10 10:01:08;;;;;;;9.90;3.33;;;;;;;14.57;45.83;98531.13;8361078;23;20202;-78
2023/12/10 10:04:29;;;;;;;10.17;3.20;;;;;;;13.92;47.69;98518.66;8362113;23;20171;-77
2023/12/10 10:07:51;;;;;;;11.90;3.73;;;;;;;13.98;47.31;98500.66;8361561;23;20692;-80
2023/12/10 10:11:12;;;;;;;9.13;3.20;;;;;;;14.03;47.81;98533.28;8361773;23;20210;-77
2023/12/10 10:14:34;;;;;;;8.20;2.93;;;;;;;13.75;47.81;98533.94;8363328;23;20182;-78
2023/12/10 10:17:58;;;;;;;8.50;3.07;;;;;;;13.69;48.66;98528.66;8365306;23;20715;-78
2023/12/10 10:21:20;;;;;;;9.53;2.60;;;;;;;14.04;48.33;98534.97;8366182;23;20663;-82
2023/12/10 10:24:41;;;;;;;8.30;2.90;;;;;;;13.97;48.24;98540.47;8366260;23;20186;-80
2023/12/10 10:28:07;;;;;;;8.47;3.37;;;;;;;13.73;48.92;98536.06;8366105;23;20190;-81
2023/12/10 10:31:29;;;;;;;10.90;2.80;;;;;;;13.57;48.45;98469.00;8367604;23;20213;-82
2023/12/10 10:34:52;;;;;;;6.57;3.07;;;;;;;13.25;49.82;98543.44;8366893;23;20186;-82
2023/12/10 10:38:16;;;;;;;8.07;2.73;;;;;;;13.80;49.91;98525.94;8366442;23;20182;-77
2023/12/10 10:41:38;;;;;;;9.40;3.00;;;;;;;14.20;48.99;98513.44;8367645;23;20206;-79
2023/12/10 10:45:00;;;;;;;7.97;3.47;;;;;;;13.82;49.76;98540.13;8367897;23;20182;-78
2023/12/10 10:48:23;;;;;;;12.00;4.07;;;;;;;14.14;49.00;98522.47;8370893;23;20182;-77
2023/12/10 10:51:46;;;;;;;12.80;4.57;;;;;;;13.72;51.05;98512.75;8367003;23;20213;-79
2023/12/10 10:55:08;;;;;;;7.80;3.17;;;;;;;13.67;51.05;98500.94;8366830;23;20197;-78
2023/12/10 10:58:30;;;;;;;7.67;3.00;;;;;;;14.13;48.67;98471.19;8364739;23;20213;-79
2023/12/10 11:01:52;;;;;;;4.57;2.20;;;;;;;14.37;48.62;98505.41;8366277;23;20210;-79
2023/12/10 11:05:14;;;;;;;7.57;3.23;;;;;;;13.98;48.50;98511.50;8365666;23;20185;-78
2023/12/10 11:08:37;;;;;;;6.50;2.83;;;;;;;13.98;49.73;98497.94;8363670;23;20182;-78
2023/12/10 11:11:59;;;;;;;6.93;2.77;;;;;;;14.06;48.58;98492.19;8365293;23;20278;-78
2023/12/10 11:15:24;;;;;;;9.00;2.80;;;;;;;14.55;47.37;98491.72;8365079;23;20236;-80
2023/12/10 11:18:53;;;;;;;5.50;2.73;;;;;;;14.36;47.86;98482.91;8367846;23;20185;-78
2023/12/10 11:22:15;;;;;;;11.00;4.30;;;;;;;14.21;48.38;98503.44;8366281;23;20233;-77
2023/12/10 11:25:38;;;;;;;12.67;4.03;;;;;;;14.05;49.07;98504.09;8359293;23;20187;-78
2023/12/10 11:28:59;;;;;;;9.33;3.27;;;;;;;14.08;49.00;98490.88;8359658;23;20671;-79
2023/12/10 11:32:21;;;;;;;8.03;2.67;;;;;;;14.43;48.35;98496.31;8360476;23;20213;-78
2023/12/10 11:35:43;;;;;;;8.47;2.80;;;;;;;14.76;47.46;98483.78;8362818;23;20190;-77
2023/12/10 11:39:05;;;;;;;7.80;2.77;;;;;;;14.35;47.92;98486.69;8364419;23;20177;-79
2023/12/10 11:42:28;;;;;;;8.10;4.00;;;;;;;14.98;46.54;98486.69;8372754;23;20253;-78
2023/12/10 11:45:49;;;;;;;9.63;3.40;;;;;;;14.64;47.27;98472.13;8375573;23;20186;-77
2023/12/10 11:49:11;;;;;;;10.10;3.20;;;;;;;15.18;46.24;98471.63;8373827;23;20205;-80
2023/12/10 11:52:32;;;;;;;10.97;2.83;;;;;;;14.17;48.15;98467.75;8360975;23;20217;-79
2023/12/10 11:55:54;;;;;;;6.90;3.03;;;;;;;13.97;49.32;98472.72;8366170;23;20213;-78
2023/12/10 11:59:18;;;;;;;8.30;3.33;;;;;;;14.32;48.44;98473.59;8366990;23;20178;-78
2023/12/10 12:02:43;;;;;;;5.77;2.70;;;;;;;14.41;48.27;98474.06;8366405;23;20537;-79
2023/12/10 12:06:05;;;;;;;12.53;3.20;;;;;;;14.38;48.46;98463.66;8365341;23;20182;-78
2023/12/10 12:09:27;;;;;;;7.30;2.97;;;;;;;14.66;47.70;98467.28;8367930;23;20202;-79
2023/12/10 12:12:49;;;;;;;8.63;3.57;;;;;;;14.76;47.01;98453.09;8369131;23;20193;-78
2023/12/10 12:16:12;;;;;;;10.70;3.27;;;;;;;13.65;49.51;98470.56;8367249;23;20182;-78
2023/12/10 12:19:33;;;;;;;12.43;3.00;;;;;;;13.93;49.02;98473.44;8365308;23;20190;-78
2023/12/10 12:22:55;;;;;;;12.87;3.93;;;;;;;13.78;49.26;98482.00;8361357;23;20186;-79
2023/12/10 12:26:16;;;;;;;10.90;3.10;;;;;;;13.99;49.44;98470.59;8363485;23;20632;-77
2023/12/10 12:29:38;;;;;;;9.67;3.03;;;;;;;14.16;48.81;98470.72;8362649;23;20206;-78
2023/12/10 12:33:01;;;;;;;14.83;3.40;;;;;;;14.28;48.87;98469.69;8361904;23;20200;-78
2023/12/10 12:36:23;;;;;;;7.53;2.80;;;;;;;13.99;48.88;98461.66;8362637;23;20196;-78
2023/12/10 12:39:45;;;;;;;11.53;3.53;;;;;;;14.03;49.14;98455.50;8361643;23;20248;-76
2023/12/10 12:43:06;;;;;;;7.30;2.70;;;;;;;14.30;47.76;98453.19;8362132;23;20591;-79
2023/12/10 12:46:28;;;;;;;9.67;3.33;;;;;;;14.25;48.23;98453.06;8360718;23;20186;-79
2023/12/10 12:49:51;;;;;;;7.33;2.73;;;;;;;14.25;47.88;98456.63;8361059;23;20206;-78
2023/12/10 12:53:12;;;;;;;12.40;3.27;;;;;;;14.20;48.04;98448.34;8360507;23;20195;-80
2023/12/10 12:56:34;;;;;;;13.93;3.73;;;;;;;14.73;46.97;98448.16;8361930;23;20194;-78
2023/12/10 12:59:56;;;;;;;11.10;2.97;;;;;;;14.53;47.27;98439.59;8361494;23;20208;-78
2023/12/10 13:03:17;;;;;;;8.17;3.47;;;;;;;14.87;46.59;98438.69;8363858;23;20182;-78
2023/12/10 13:06:40;;;;;;;8.57;3.13;;;;;;;14.36;46.89;98449.53;8363163;23;20185;-79
2023/12/10 13:10:02;;;;;;;8.73;2.73;;;;;;;14.36;47.23;98450.34;8361933;23;20347;-78
2023/12/10 13:13:24;;;;;;;8.03;2.80;;;;;;;14.31;47.37;98447.53;8363602;23;20186;-78
2023/12/10 13:16:46;;;;;;;14.67;3.53;;;;;;;14.24;47.20;98449.53;8363541;23;20192;-78
2023/12/10 13:20:08;;;;;;;7.30;2.70;;;;;;;14.41;46.76;98433.38;8362032;23;20197;-79
2023/12/10 13:23:32;;;;;;;8.87;2.53;;;;;;;14.34;46.56;98427.25;8364297;23;20654;-77
2023/12/10 13:26:53;;;;;;;10.67;2.77;;;;;;;14.69;46.16;98438.84;8363788;23;20198;-78
2023/12/10 13:30:15;;;;;;;7.73;2.73;;;;;;;14.90;45.09;98430.88;8361720;23;20210;-78
2023/12/10 13:33:37;;;;;;;7.87;2.67;;;;;;;14.63;45.62;98439.81;8363526;23;20191;-78
2023/12/10 13:36:58;;;;;;;7.63;2.50;;;;;;;14.74;45.87;98442.50;8362201;23;20185;-78
2023/12/10 13:40:21;;;;;;;8.67;2.97;;;;;;;15.08;45.27;98429.84;8361937;23;20683;-80
2023/12/10 13:43:43;;;;;;;5.43;2.57;;;;;;;15.19;45.25;98439.84;8361968;23;20202;-79
2023/12/10 13:47:05;;;;;;;7.20;2.70;;;;;;;14.82;45.39;98457.56;8362926;23;20189;-78
2023/12/10 13:50:27;;;;;;;6.37;3.10;;;;;;;14.43;45.52;98429.34;8362059;23;20316;-78
2023/12/10 13:53:48;;;;;;;7.13;2.77;;;;;;;14.65;45.78;98441.22;8363433;23;20185;-78
2023/12/10 13:57:11;;;;;;;12.67;2.73;;;;;;;15.10;45.09;98433.97;8361552;23;20190;-79
2023/12/10 14:00:33;;;;;;;10.07;2.90;;;;;;;14.35;45.19;98407.19;8360814;23;20213;-79
2023/12/10 14:03:55;;;;;;;8.50;2.70;;;;;;;14.81;45.55;98437.75;8363041;23;20190;-79
2023/12/10 14:07:16;;;;;;;6.47;2.97;;;;;;;14.97;45.27;98438.88;8361619;23;20186;-79
2023/12/10 14:10:38;;;;;;;6.97;3.03;;;;;;;15.13;44.66;98438.09;8360605;23;20217;-78
2023/12/10 14:14:01;;;;;;;10.23;3.47;;;;;;;15.24;44.64;98429.91;8362915;23;20185;-79
2023/12/10 14:17:22;;;;;;;5.03;2.53;;;;;;;14.85;45.56;98435.38;8362791;23;20193;-78
2023/12/10 14:20:44;;;;;;;10.90;3.13;;;;;;;15.17;44.69;98421.06;8361725;23;20697;-78
2023/12/10 14:24:06;;;;;;;6.33;3.30;;;;;;;15.09;44.89;98437.75;8363463;23;20187;-78
2023/12/10 14:27:27;;;;;;;8.67;2.77;;;;;;;15.43;44.08;98442.25;8363590;23;20193;-77
2023/12/10 14:30:51;;;;;;;7.30;2.47;;;;;;;14.99;44.73;98417.75;8363329;23;20213;-77
2023/12/10 14:34:13;;;;;;;8.37;3.13;;;;;;;14.79;45.27;98426.31;8363262;23;20190;-78
2023/12/10 14:37:34;;;;;;;6.43;2.70;;;;;;;15.28;45.11;98439.22;8363001;23;20186;-78
2023/12/10 14:40:56;;;;;;;8.80;3.17;;;;;;;15.56;44.03;98422.91;8362054;23;20206;-77
2023/12/10 14:44:18;;;;;;;9.97;3.40;;;;;;;15.60;43.72;98409.66;8362843;23;20269;-76
2023/12/10 14:47:40;;;;;;;9.77;3.40;;;;;;;15.45;44.22;98384.94;8363469;23;20182;-76
2023/12/10 14:51:02;;;;;;;10.27;2.90;;;;;;;15.29;44.08;98404.72;8362287;23;20206;-76
2023/12/10 14:54:24;;;;;;;7.53;3.00;;;;;;;14.57;45.03;98400.88;8363014;23;20193;-76
2023/12/10 14:57:45;;;;;;;10.37;3.33;;;;;;;14.96;44.82;98396.50;8361303;23;20198;-76
2023/12/10 15:01:07;;;;;;;11.37;2.90;;;;;;;15.09;44.56;98386.19;8362010;23;20200;-77
2023/12/10 15:04:30;;;;;;;9.97;3.30;;;;;;;15.35;44.13;98379.34;8363011;23;20193;-77
2023/12/10 15:07:52;;;;;;;11.30;3.77;;;;;;;14.66;45.11;98366.91;8362921;23;20189;-76
2023/12/10 15:11:13;;;;;;;8.87;3.47;;;;;;;14.67;45.65;98373.97;8361861;23;20540;-77
2023/12/10 15:14:35;;;;;;;12.23;3.23;;;;;;;14.71;45.54;98382.44;8362595;23;20186;-77
2023/12/10 15:17:58;;;;;;;9.20;3.53;;;;;;;14.83;45.55;98375.09;8361710;23;20655;-77
2023/12/10 15:21:21;;;;;;;13.57;4.10;;;;;;;14.79;45.40;98366.59;8361357;23;20204;-76
2023/12/10 15:24:43;;;;;;;8.67;3.53;;;;;;;15.18;44.70;98359.44;8359400;23;20436;-78
2023/12/10 15:28:05;;;;;;;7.30;3.13;;;;;;;15.17;44.62;98357.81;8359928;23;20185;-79
2023/12/10 15:31:26;;;;;;;9.97;3.10;;;;;;;14.91;45.28;98352.97;8359203;23;20658;-77
2023/12/10 15:34:48;;;;;;;9.27;3.20;;;;;;;15.25;44.63;98331.06;8360203;23;20190;-76
2023/12/10 15:38:11;;;;;;;12.93;4.33;;;;;;;14.23;46.53;98338.59;8359818;23;20213;-76
2023/12/10 15:41:33;;;;;;;9.63;3.47;;;;;;;14.84;45.25;98339.56;8361731;23;20217;-76
2023/12/10 15:44:54;;;;;;;6.80;3.20;;;;;;;14.86;45.29;98321.13;8362602;23;20186;-77